メインページ
METAR-TAF:

METAR-TAF

空港 :

ダマスカス, シリア

ダマスカス国際空港

緯度: 33-25N, 経度: 036-31E, 海抜: 608m

現時点の気象観測

当レポートは44分前の09:00(UTC)に作成
南/南西の風 4kt
気温 19°C
湿度 26%
気圧 1018 hPa
視程10km以上
高度3000ftの雲はほとんどない

METAR: OSDI 250900Z 20004KT 9999 FEW030 19/M01 Q1018

時間: 11:44 (09:44 UTC)

予報

当レポートは5時間29分前の04:15(UTC)に作成
予報は25日の 06時(UTC)から 26日の 12時(UTC)まで有効
変向風 3kt
視程10km以上
1,500メートル以下は雲なし、積乱雲なし
25日の 12時(UTC)から 25日の 18時(UTC)まで一時的に
南西の風 8kt
視程10km以上
高度3000ftの雲はほとんどない
高度10000ftの雲は散在している

TAF: OSDI 250415Z 2506/2612 VRB03KT CAVOK TEMPO 2512/2518 22008KT 9999 FEW030 SCT100

4,000以上の空港の気象観測と天気予報(METAR報とTAF報)

利用可能な観測所は地図上に黄色い丸と赤い丸で示す。

丸の上にカーソルを重ねると観測所名を参照できる。

次にクリックすると気象観測と天気予報を参照できる。

マップの切り替え:黒色「×」印の緑ボタンをクリックして拡大、「-」印の緑ボタンをクリックして縮小、緑色の三角印をクリックして隣りの地図に切り替え


METAR-TAF: